Time;durP1;ratioP1;P1;durP2;ratioP2;P2;SDS_P1;SDS_P2;PMS_P1;PMS_P2;Temp;Humidity;BMP_temperature;BMP_pressure;BME280_temperature;BME280_humidity;BME280_pressure;Samples;Min_cycle;Max_cycle;Signal;HPM_P1;HPM_P2
2022/03/14 00:01:40;;;;;;;4.40;2.97;;;19.00;65.80;;;;;;7901729;28;20205;-47
2022/03/14 00:05:31;;;;;;;5.22;3.03;;;19.00;65.80;;;;;;7901836;28;20638;-47
2022/03/14 00:09:17;;;;;;;6.32;3.00;;;18.90;65.70;;;;;;7901740;28;20180;-46
2022/03/14 00:13:03;;;;;;;5.20;3.15;;;18.90;65.70;;;;;;7900622;28;20226;-47
2022/03/14 00:16:49;;;;;;;5.10;2.72;;;18.80;65.70;;;;;;7901551;28;20165;-46
2022/03/14 00:20:34;;;;;;;3.90;2.95;;;18.80;65.70;;;;;;7901219;28;20177;-47
2022/03/14 00:24:19;;;;;;;3.75;2.70;;;18.80;65.70;;;;;;7901391;28;20257;-49
2022/03/14 00:28:05;;;;;;;6.95;2.85;;;18.80;65.80;;;;;;7901281;28;20181;-46
2022/03/14 00:31:50;;;;;;;4.13;3.15;;;18.70;65.70;;;;;;7900753;28;20212;-46
2022/03/14 00:35:36;;;;;;;6.55;3.22;;;18.70;65.70;;;;;;7901102;28;20642;-47
2022/03/14 00:39:22;;;;;;;5.47;3.25;;;18.70;65.70;;;;;;7900844;28;20177;-49
2022/03/14 00:43:07;;;;;;;4.25;2.72;;;18.70;65.60;;;;;;7900779;28;20220;-47
2022/03/14 00:46:53;;;;;;;3.95;2.88;;;18.70;65.70;;;;;;7901003;28;20172;-47
2022/03/14 00:50:38;;;;;;;4.22;3.03;;;18.60;65.60;;;;;;7900541;28;20209;-48
2022/03/14 00:54:24;;;;;;;6.10;3.28;;;18.60;65.60;;;;;;7900908;28;20189;-46
2022/03/14 00:58:09;;;;;;;5.35;2.90;;;18.60;65.60;;;;;;7900771;28;20638;-46
2022/03/14 01:01:55;;;;;;;3.42;2.83;;;18.60;65.60;;;;;;7900420;28;20189;-48
2022/03/14 01:05:41;;;;;;;4.20;3.05;;;18.60;65.70;;;;;;7900537;28;20177;-48
2022/03/14 01:09:26;;;;;;;3.83;2.88;;;18.50;65.70;;;;;;7900146;28;20215;-47
2022/03/14 01:13:12;;;;;;;2.95;2.60;;;18.50;65.60;;;;;;7900149;28;20216;-46
2022/03/14 01:16:57;;;;;;;5.00;3.30;;;18.50;65.60;;;;;;7900291;28;20179;-46
2022/03/14 01:20:43;;;;;;;4.15;3.00;;;18.50;65.60;;;;;;7900065;28;20181;-47
2022/03/14 01:24:28;;;;;;;3.67;2.95;;;18.40;65.50;;;;;;7904172;28;20201;-49
2022/03/14 01:28:14;;;;;;;4.68;3.10;;;18.40;65.50;;;;;;7906735;28;20271;-47
2022/03/14 01:32:01;;;;;;;4.07;3.25;;;18.40;65.50;;;;;;7906169;28;20208;-48
2022/03/14 01:35:47;;;;;;;3.97;2.80;;;18.40;65.50;;;;;;7906342;28;20169;-48
2022/03/14 01:39:32;;;;;;;3.70;2.92;;;18.40;65.60;;;;;;7905947;28;20176;-48
2022/03/14 01:43:19;;;;;;;3.35;2.75;;;18.40;65.60;;;;;;7905933;28;20204;-46
2022/03/14 01:47:04;;;;;;;4.50;3.20;;;18.30;65.40;;;;;;7906150;28;20185;-46
2022/03/14 01:50:51;;;;;;;4.47;3.28;;;18.30;65.40;;;;;;7905467;28;20204;-48
2022/03/14 01:54:38;;;;;;;3.63;2.95;;;18.30;65.40;;;;;;7905794;28;20192;-46
2022/03/14 01:58:23;;;;;;;3.50;2.80;;;18.30;65.50;;;;;;7905699;28;20188;-47
2022/03/14 02:02:09;;;;;;;5.53;3.10;;;18.30;65.50;;;;;;7905271;28;20221;-47
2022/03/14 02:05:55;;;;;;;4.30;3.00;;;18.20;65.40;;;;;;7905433;28;20227;-48
2022/03/14 02:09:41;;;;;;;4.63;3.30;;;18.20;66.30;;;;;;7905249;28;20302;-46
2022/03/14 02:13:26;;;;;;;3.78;2.85;;;18.20;65.40;;;;;;7905002;28;20212;-47
2022/03/14 02:17:14;;;;;;;3.70;3.00;;;18.20;65.40;;;;;;7905157;28;20959;-46
2022/03/14 02:20:59;;;;;;;4.53;3.22;;;18.10;65.40;;;;;;7904786;28;20176;-47
2022/03/14 02:24:46;;;;;;;4.65;3.00;;;18.10;65.30;;;;;;7904845;28;20669;-48
2022/03/14 02:28:32;;;;;;;4.97;3.22;;;18.10;65.30;;;;;;7904803;28;20596;-46
2022/03/14 02:32:18;;;;;;;3.80;3.10;;;18.10;65.30;;;;;;7904433;28;20238;-47
2022/03/14 02:36:04;;;;;;;4.55;3.30;;;18.10;65.30;;;;;;7903764;28;20180;-47
2022/03/14 02:39:49;;;;;;;4.50;3.05;;;18.10;66.20;;;;;;7904322;28;20248;-47
2022/03/14 02:43:36;;;;;;;3.47;2.92;;;18.00;65.20;;;;;;7904466;28;20670;-46
2022/03/14 02:47:22;;;;;;;4.25;3.20;;;18.10;65.30;;;;;;7904247;28;20549;-47
2022/03/14 02:51:08;;;;;;;4.78;2.72;;;18.00;65.20;;;;;;7903935;28;20220;-47
2022/03/14 02:54:53;;;;;;;6.57;3.28;;;18.00;65.30;;;;;;7904034;28;20189;-46
2022/03/14 02:58:39;;;;;;;4.18;3.05;;;18.00;65.30;;;;;;7904076;28;20184;-48
2022/03/14 03:02:25;;;;;;;5.43;3.60;;;18.00;65.30;;;;;;7903503;28;20192;-46
2022/03/14 03:06:13;;;;;;;4.00;3.15;;;18.00;65.20;;;;;;7903651;28;20204;-46
2022/03/14 03:09:59;;;;;;;4.95;3.00;;;17.90;65.20;;;;;;7903301;28;20173;-48
2022/03/14 03:13:46;;;;;;;4.25;3.33;;;17.90;65.30;;;;;;7903327;28;20227;-47
2022/03/14 03:17:32;;;;;;;4.88;3.40;;;17.90;65.30;;;;;;7903400;28;20230;-49
2022/03/14 03:21:17;;;;;;;4.72;3.20;;;17.90;65.30;;;;;;7902988;28;20181;-46
2022/03/14 03:25:03;;;;;;;6.00;3.65;;;17.80;65.10;;;;;;7903101;28;20192;-48
2022/03/14 03:28:49;;;;;;;4.57;3.15;;;17.90;65.30;;;;;;7903080;28;20187;-47
2022/03/14 03:32:34;;;;;;;4.50;3.15;;;17.90;65.30;;;;;;7902468;28;20216;-46
2022/03/14 03:36:19;;;;;;;3.80;2.85;;;17.90;65.30;;;;;;7902737;28;20226;-49
2022/03/14 03:40:06;;;;;;;5.22;3.25;;;17.80;65.10;;;;;;7902363;28;20543;-47
2022/03/14 03:43:51;;;;;;;5.60;3.40;;;17.80;65.20;;;;;;7902509;28;20211;-46
2022/03/14 03:47:37;;;;;;;5.55;3.28;;;17.80;65.10;;;;;;7902428;28;20200;-49
2022/03/14 03:51:22;;;;;;;4.30;3.15;;;17.80;65.20;;;;;;7901801;28;20223;-49
2022/03/14 03:55:09;;;;;;;4.70;3.40;;;17.80;65.20;;;;;;7902877;28;20204;-46
2022/03/14 03:58:55;;;;;;;4.00;3.25;;;17.80;65.10;;;;;;7902376;28;20318;-47
2022/03/14 04:02:42;;;;;;;4.32;3.33;;;17.70;65.10;;;;;;7901823;28;20692;-46
2022/03/14 04:06:30;;;;;;;4.22;3.38;;;17.70;65.10;;;;;;7901933;28;20189;-48
2022/03/14 04:10:16;;;;;;;4.72;3.42;;;17.70;65.10;;;;;;7901669;28;20239;-47
2022/03/14 04:14:03;;;;;;;4.72;3.28;;;17.70;65.10;;;;;;7901690;28;20199;-46
2022/03/14 04:17:50;;;;;;;3.75;3.03;;;17.70;65.10;;;;;;7901771;28;20177;-47
2022/03/14 04:21:35;;;;;;;5.53;3.30;;;17.70;65.10;;;;;;7901314;28;20234;-46
2022/03/14 04:25:21;;;;;;;5.57;3.47;;;17.60;65.00;;;;;;7901620;28;20176;-47
2022/03/14 04:29:06;;;;;;;5.20;3.55;;;17.70;66.00;;;;;;7901234;28;20165;-46
2022/03/14 04:32:52;;;;;;;5.53;3.35;;;17.60;65.10;;;;;;7901204;28;20231;-46
2022/03/14 04:36:37;;;;;;;4.97;3.42;;;17.60;65.10;;;;;;7901242;28;20177;-47
2022/03/14 04:40:23;;;;;;;4.75;3.30;;;17.60;65.10;;;;;;7900742;28;20177;-47
2022/03/14 04:44:09;;;;;;;4.47;3.03;;;17.60;65.00;;;;;;7900743;28;20249;-47
2022/03/14 04:47:54;;;;;;;4.30;3.22;;;17.60;65.10;;;;;;7900855;28;20265;-48
2022/03/14 04:51:40;;;;;;;4.38;3.63;;;17.60;65.10;;;;;;7900284;28;20583;-47
2022/03/14 04:55:26;;;;;;;4.43;3.58;;;17.60;65.10;;;;;;7916767;28;20180;-47
2022/03/14 04:59:11;;;;;;;4.85;3.47;;;17.60;65.00;;;;;;7930231;28;20650;-47
2022/03/14 05:03:04;;;;;;;11.77;3.67;;;17.60;65.10;;;;;;7931230;28;20206;-47
2022/03/14 05:06:49;;;;;;;7.00;3.75;;;17.60;64.70;;;;;;7930951;28;20699;-47
2022/03/14 05:10:34;;;;;;;7.57;3.22;;;17.50;65.00;;;;;;7930856;28;20298;-47
2022/03/14 05:14:20;;;;;;;16.00;4.30;;;17.50;65.20;;;;;;7931130;28;20259;-48
2022/03/14 05:18:05;;;;;;;9.57;3.60;;;17.60;65.50;;;;;;7927502;28;20187;-46
2022/03/14 05:21:51;;;;;;;7.78;3.75;;;17.50;65.60;;;;;;7931281;28;20210;-46
2022/03/14 05:25:36;;;;;;;17.73;4.20;;;17.50;65.50;;;;;;7930703;28;20861;-46
2022/03/14 05:29:23;;;;;;;12.10;4.13;;;17.60;66.30;;;;;;7930414;28;20220;-47
2022/03/14 05:33:08;;;;;;;14.20;4.28;;;17.70;66.40;;;;;;7930472;28;20287;-46
2022/03/14 05:36:54;;;;;;;10.43;3.88;;;17.70;65.60;;;;;;7930384;28;20183;-46
2022/03/14 05:40:39;;;;;;;27.08;5.13;;;17.70;65.40;;;;;;7912789;28;20247;-46
2022/03/14 05:44:25;;;;;;;15.25;3.97;;;17.60;65.20;;;;;;7898908;28;20196;-46
2022/03/14 05:48:11;;;;;;;9.93;3.50;;;17.60;64.80;;;;;;7899097;28;20664;-45
2022/03/14 05:51:56;;;;;;;21.08;3.95;;;17.60;65.00;;;;;;7898921;28;20216;-45
2022/03/14 05:55:42;;;;;;;13.65;4.13;;;17.70;65.60;;;;;;7917775;28;20196;-46
2022/03/14 05:59:27;;;;;;;10.63;3.83;;;17.60;65.70;;;;;;7929931;28;20176;-45
2022/03/14 06:03:14;;;;;;;5.97;3.90;;;17.70;65.70;;;;;;7928496;28;20204;-47
2022/03/14 06:07:00;;;;;;;8.55;4.18;;;17.70;65.80;;;;;;7930270;28;20180;-47
2022/03/14 06:10:46;;;;;;;7.07;4.13;;;17.70;65.90;;;;;;7912764;28;20242;-46
2022/03/14 06:14:32;;;;;;;18.40;4.50;;;17.70;66.00;;;;;;7904360;28;20191;-46
2022/03/14 06:18:18;;;;;;;10.30;4.00;;;17.70;66.10;;;;;;7904106;28;20219;-46
2022/03/14 06:22:03;;;;;;;12.98;4.00;;;17.70;65.10;;;;;;7903478;28;20197;-46
2022/03/14 06:25:50;;;;;;;15.02;3.90;;;17.60;65.00;;;;;;7924068;28;20188;-47
2022/03/14 06:29:35;;;;;;;16.00;4.28;;;17.50;65.30;;;;;;7934831;28;20180;-46
2022/03/14 06:33:21;;;;;;;15.90;4.20;;;17.50;65.60;;;;;;7935160;28;20330;-46
2022/03/14 06:37:07;;;;;;;9.88;3.80;;;17.50;65.60;;;;;;7934966;27;20172;-46
2022/03/14 06:40:56;;;;;;;16.13;4.60;;;17.40;65.50;;;;;;7914186;28;20184;-47
2022/03/14 06:44:43;;;;;;;23.00;4.88;;;17.50;65.90;;;;;;7903686;28;20196;-47
2022/03/14 06:48:28;;;;;;;11.70;4.55;;;17.50;65.60;;;;;;7902686;28;20268;-46
2022/03/14 06:52:15;;;;;;;28.50;4.72;;;17.60;66.00;;;;;;7911486;28;20215;-47
2022/03/14 06:56:00;;;;;;;13.52;4.53;;;17.60;66.80;;;;;;7912818;28;20191;-45
2022/03/14 06:59:46;;;;;;;13.77;4.03;;;17.60;67.00;;;;;;7902253;28;20243;-46
2022/03/14 07:03:31;;;;;;;13.15;4.32;;;17.60;67.00;;;;;;7902930;28;20200;-47
2022/03/14 07:07:17;;;;;;;10.88;4.18;;;17.60;67.00;;;;;;7902586;28;20860;-45
2022/03/14 07:11:02;;;;;;;9.77;3.88;;;17.70;67.20;;;;;;7902465;28;20223;-46
2022/03/14 07:14:48;;;;;;;11.75;4.13;;;17.70;67.10;;;;;;7902967;28;20189;-45
2022/03/14 07:18:34;;;;;;;8.60;3.97;;;17.70;67.10;;;;;;7902342;28;20649;-46
2022/03/14 07:22:21;;;;;;;9.70;4.00;;;17.70;67.10;;;;;;7900255;28;20208;-47
2022/03/14 07:26:06;;;;;;;14.68;5.50;;;17.70;67.00;;;;;;7901433;28;20192;-46
2022/03/14 07:29:52;;;;;;;11.60;4.07;;;17.80;67.10;;;;;;7907008;28;20222;-46
2022/03/14 07:33:37;;;;;;;5.07;3.63;;;17.80;67.10;;;;;;7933596;28;20215;-46
2022/03/14 07:37:23;;;;;;;7.55;3.65;;;17.80;67.10;;;;;;7932862;28;20294;-47
2022/03/14 07:41:09;;;;;;;9.25;4.30;;;17.90;67.30;;;;;;7909418;28;20189;-48
2022/03/14 07:44:55;;;;;;;9.63;4.30;;;18.00;67.00;;;;;;7901873;28;20320;-47
2022/03/14 07:48:40;;;;;;;11.43;4.07;;;18.00;67.00;;;;;;7900820;28;20184;-47
2022/03/14 07:52:26;;;;;;;8.32;4.15;;;18.10;66.40;;;;;;7901149;28;20239;-47
2022/03/14 07:56:13;;;;;;;7.85;4.28;;;18.10;64.40;;;;;;7901614;28;20173;-46
2022/03/14 07:59:59;;;;;;;10.13;4.70;;;18.20;64.10;;;;;;7932235;28;20685;-48
2022/03/14 08:03:45;;;;;;;8.52;4.03;;;18.30;62.90;;;;;;7933082;28;20905;-47
2022/03/14 08:07:30;;;;;;;13.77;4.75;;;18.40;63.40;;;;;;7932194;28;20645;-47
2022/03/14 08:11:17;;;;;;;6.28;3.90;;;18.50;63.10;;;;;;7906865;28;20369;-46
2022/03/14 08:15:05;;;;;;;8.27;4.38;;;18.60;62.20;;;;;;7900817;28;20385;-45
2022/03/14 08:18:51;;;;;;;8.57;4.63;;;18.70;61.80;;;;;;7900140;28;20221;-46
2022/03/14 08:22:36;;;;;;;11.23;4.43;;;18.80;61.10;;;;;;7900474;28;20196;-46
2022/03/14 08:26:22;;;;;;;8.65;4.60;;;18.90;60.80;;;;;;7900111;28;20180;-46
2022/03/14 08:30:08;;;;;;;6.97;4.20;;;19.10;60.40;;;;;;7899687;28;20192;-45
2022/03/14 08:33:53;;;;;;;6.03;3.88;;;19.20;60.40;;;;;;7899627;28;20850;-45
2022/03/14 08:37:42;;;;;;;8.45;4.30;;;19.30;60.00;;;;;;7899537;28;20588;-46
2022/03/14 08:41:29;;;;;;;7.40;4.47;;;19.40;60.00;;;;;;7927308;28;20759;-46
2022/03/14 08:45:15;;;;;;;8.05;4.57;;;19.60;59.70;;;;;;7931992;28;20175;-48
2022/03/14 08:49:02;;;;;;;8.63;4.95;;;19.60;59.60;;;;;;7922328;28;20731;-47
2022/03/14 08:52:47;;;;;;;20.80;4.78;;;19.80;59.90;;;;;;7899544;28;20235;-47
2022/03/14 08:56:34;;;;;;;9.40;4.57;;;19.80;60.10;;;;;;7927860;28;20226;-45
2022/03/14 09:00:21;;;;;;;10.52;3.88;;;20.00;60.40;;;;;;7930982;28;20176;-47
2022/03/14 09:04:06;;;;;;;9.07;4.20;;;20.10;60.00;;;;;;7931191;28;20258;-46
2022/03/14 09:07:52;;;;;;;11.63;4.07;;;20.10;59.40;;;;;;7900027;28;20188;-45
2022/03/14 09:11:39;;;;;;;12.32;4.25;;;20.20;59.30;;;;;;7898892;28;20698;-45
2022/03/14 09:15:24;;;;;;;13.15;4.55;;;20.20;59.20;;;;;;7899554;28;20706;-46
2022/03/14 09:19:10;;;;;;;6.95;4.00;;;20.20;59.30;;;;;;7898568;28;20266;-47
2022/03/14 09:22:56;;;;;;;7.68;4.10;;;20.30;59.50;;;;;;7899426;28;20200;-46
2022/03/14 09:26:41;;;;;;;8.20;4.00;;;20.30;59.50;;;;;;7926050;28;20673;-47
2022/03/14 09:30:27;;;;;;;7.25;4.30;;;20.20;59.60;;;;;;7930255;28;20605;-46
2022/03/14 09:34:12;;;;;;;5.70;4.13;;;20.30;59.60;;;;;;7930813;28;20200;-47
2022/03/14 09:37:58;;;;;;;8.82;4.20;;;20.30;59.80;;;;;;7930233;28;20178;-53
2022/03/14 09:41:45;;;;;;;18.42;4.40;;;20.30;59.80;;;;;;7898046;28;20235;-47
2022/03/14 09:45:34;;;;;;;11.80;4.55;;;20.30;60.30;;;;;;7903019;28;20168;-46
2022/03/14 09:49:22;;;;;;;7.90;3.90;;;20.40;60.10;;;;;;7904232;28;20646;-48
2022/03/14 09:53:10;;;;;;;21.75;4.47;;;20.40;60.40;;;;;;7905115;28;20208;-46
2022/03/14 09:56:57;;;;;;;7.15;3.63;;;20.40;60.10;;;;;;7936389;28;20172;-49
2022/03/14 10:00:43;;;;;;;7.43;4.05;;;20.40;60.00;;;;;;7936645;28;20248;-46
2022/03/14 10:04:29;;;;;;;8.68;4.25;;;20.40;60.10;;;;;;7936862;28;20219;-47
2022/03/14 10:08:15;;;;;;;8.40;4.35;;;20.30;60.20;;;;;;7934742;28;20176;-47
2022/03/14 10:12:02;;;;;;;11.77;4.28;;;20.40;60.70;;;;;;7930492;28;20218;-46
2022/03/14 10:15:48;;;;;;;9.15;4.15;;;20.40;60.90;;;;;;7936163;28;20583;-46
2022/03/14 10:19:37;;;;;;;12.65;4.47;;;20.40;60.70;;;;;;7935147;28;20172;-46
2022/03/14 10:23:35;;;;;;;10.57;4.18;;;20.30;60.70;;;;;;7933736;28;20199;-45
2022/03/14 10:27:21;;;;;;;8.45;3.78;;;20.40;61.30;;;;;;7903629;28;20184;-45
2022/03/14 10:31:07;;;;;;;11.07;3.80;;;20.40;61.60;;;;;;7903394;28;20274;-46
2022/03/14 10:34:53;;;;;;;8.00;4.00;;;20.40;61.20;;;;;;7903781;28;20705;-46
2022/03/14 10:38:45;;;;;;;12.07;4.10;;;20.40;61.00;;;;;;7908233;28;20660;-47
2022/03/14 10:42:41;;;;;;;7.07;3.85;;;20.40;61.10;;;;;;7921945;27;20212;-46
2022/03/14 10:46:27;;;;;;;10.98;3.40;;;20.40;61.70;;;;;;7934798;28;20329;-47
2022/03/14 10:50:33;;;;;;;10.88;4.35;;;20.40;61.50;;;;;;7934164;28;20191;-46
2022/03/14 10:54:19;;;;;;;9.02;4.20;;;20.40;61.50;;;;;;7923947;28;20207;-46
2022/03/14 10:58:16;;;;;;;8.73;3.95;;;20.30;61.40;;;;;;7901727;28;20180;-46
2022/03/14 11:02:03;;;;;;;5.70;3.55;;;20.30;61.30;;;;;;7902842;28;20210;-46
2022/03/14 11:05:49;;;;;;;7.35;4.07;;;20.30;61.20;;;;;;7902757;28;20254;-46
2022/03/14 11:09:41;;;;;;;10.13;4.00;;;20.30;61.20;;;;;;7917787;28;20534;-46
2022/03/14 11:13:27;;;;;;;14.52;4.50;;;20.40;61.20;;;;;;7902457;28;20196;-46
2022/03/14 11:17:16;;;;;;;9.75;4.65;;;20.30;61.10;;;;;;7902159;28;20226;-46
2022/03/14 11:21:04;;;;;;;7.78;4.40;;;20.40;61.10;;;;;;7901916;28;20730;-47
2022/03/14 11:24:53;;;;;;;8.05;3.50;;;20.40;61.20;;;;;;7917789;28;20285;-48
2022/03/14 11:28:41;;;;;;;8.88;3.60;;;20.30;61.70;;;;;;7933525;28;20199;-46
2022/03/14 11:32:27;;;;;;;11.18;4.05;;;20.40;62.00;;;;;;7933418;28;20219;-50
2022/03/14 11:36:17;;;;;;;16.88;4.45;;;20.40;61.50;;;;;;7933346;28;20168;-45
2022/03/14 11:40:07;;;;;;;9.90;4.05;;;20.40;61.50;;;;;;7915131;28;20680;-48
2022/03/14 11:43:53;;;;;;;7.38;3.47;;;20.40;61.90;;;;;;7898892;28;20199;-47
2022/03/14 11:47:39;;;;;;;10.73;3.90;;;20.40;63.60;;;;;;7901087;28;20556;-48
2022/03/14 11:51:35;;;;;;;7.20;3.40;;;20.40;62.70;;;;;;7900989;28;20200;-46
2022/03/14 11:55:23;;;;;;;11.82;3.33;;;20.40;62.60;;;;;;7922126;28;20184;-46
2022/03/14 11:59:09;;;;;;;10.98;4.55;;;20.50;62.50;;;;;;7904327;28;20191;-55
2022/03/14 12:02:57;;;;;;;21.45;4.78;;;20.40;60.00;;;;;;7909480;28;20207;-47
2022/03/14 12:06:46;;;;;;;15.27;4.05;;;20.40;60.70;;;;;;7906373;28;20212;-47
2022/03/14 12:10:34;;;;;;;12.38;5.10;;;20.40;61.30;;;;;;7922338;28;20583;-46
2022/03/14 12:14:43;;;;;;;23.90;4.38;;;20.40;61.30;;;;;;7932838;28;20219;-46
2022/03/14 12:18:30;;;;;;;18.92;3.80;;;20.40;61.60;;;;;;7932057;28;20182;-47
2022/03/14 12:22:30;;;;;;;11.60;3.95;;;20.40;61.50;;;;;;7931940;28;20196;-46
2022/03/14 12:26:24;;;;;;;19.73;4.70;;;20.40;61.70;;;;;;7903039;28;20187;-46
2022/03/14 12:30:15;;;;;;;10.75;4.82;;;20.40;61.80;;;;;;7899977;28;20168;-47
2022/03/14 12:34:09;;;;;;;13.15;4.18;;;20.50;61.80;;;;;;7900340;28;20292;-47
2022/03/14 12:38:10;;;;;;;15.32;4.20;;;20.40;61.80;;;;;;7899829;28;20183;-47
2022/03/14 12:42:23;;;;;;;14.52;4.38;;;20.40;61.90;;;;;;7931462;28;20192;-46
2022/03/14 12:46:09;;;;;;;11.00;3.78;;;20.50;61.80;;;;;;7931463;28;20179;-47
2022/03/14 12:49:55;;;;;;;11.23;4.47;;;20.50;62.00;;;;;;7930639;28;20195;-47
2022/03/14 12:53:45;;;;;;;11.05;3.67;;;20.50;62.00;;;;;;7924300;28;20219;-46
2022/03/14 12:57:30;;;;;;;10.27;4.28;;;20.50;62.00;;;;;;7929272;28;20180;-46
2022/03/14 13:01:16;;;;;;;12.45;4.20;;;20.50;61.90;;;;;;7931051;28;20188;-47
2022/03/14 13:05:03;;;;;;;21.52;4.10;;;20.50;62.00;;;;;;7931279;28;20276;-47
2022/03/14 13:08:50;;;;;;;14.25;3.80;;;20.50;62.30;;;;;;7922197;28;20638;-46
2022/03/14 13:12:35;;;;;;;8.38;3.88;;;20.50;62.10;;;;;;7898895;28;20562;-47
2022/03/14 13:16:22;;;;;;;11.10;4.00;;;20.60;62.10;;;;;;7899209;28;20212;-48
2022/03/14 13:20:27;;;;;;;12.38;4.07;;;20.60;62.00;;;;;;7902343;28;20241;-47
2022/03/14 13:24:14;;;;;;;14.85;3.65;;;20.60;62.00;;;;;;7918007;28;20212;-46
2022/03/14 13:27:59;;;;;;;9.98;3.80;;;20.60;62.10;;;;;;7936770;28;20577;-47
2022/03/14 13:31:47;;;;;;;17.45;4.53;;;20.60;62.00;;;;;;7937425;28;20208;-46
2022/03/14 13:35:43;;;;;;;12.27;3.70;;;20.60;62.00;;;;;;7908563;28;20181;-47
2022/03/14 13:39:28;;;;;;;6.55;3.83;;;20.60;62.00;;;;;;7919515;28;20184;-47
2022/03/14 13:43:15;;;;;;;8.35;4.05;;;20.60;61.90;;;;;;7937398;28;20242;-47
2022/03/14 13:47:02;;;;;;;11.25;3.88;;;20.60;61.80;;;;;;7933362;28;20278;-45
2022/03/14 13:50:49;;;;;;;14.52;3.60;;;20.60;62.10;;;;;;7936303;28;20203;-47
2022/03/14 13:54:37;;;;;;;11.00;4.20;;;20.70;62.10;;;;;;7920820;27;20637;-49
2022/03/14 13:58:25;;;;;;;12.73;4.40;;;20.70;62.20;;;;;;7904619;28;20185;-46
2022/03/14 14:02:15;;;;;;;12.75;4.10;;;20.70;62.10;;;;;;7904719;28;20201;-46
2022/03/14 14:06:17;;;;;;;10.63;3.80;;;20.70;62.10;;;;;;7904475;28;20181;-47
2022/03/14 14:10:10;;;;;;;8.00;4.50;;;20.70;62.20;;;;;;7923685;28;20184;-46
2022/03/14 14:13:56;;;;;;;9.85;4.03;;;20.70;62.00;;;;;;7936125;27;20215;-46
2022/03/14 14:17:44;;;;;;;12.15;4.10;;;20.70;62.10;;;;;;7935781;28;20232;-47
2022/03/14 14:21:29;;;;;;;9.30;3.90;;;20.70;62.10;;;;;;7935780;28;20529;-46
2022/03/14 14:25:15;;;;;;;11.07;4.18;;;20.70;62.20;;;;;;7914101;28;20207;-47
2022/03/14 14:29:00;;;;;;;15.98;4.10;;;20.70;62.20;;;;;;7903666;28;20180;-47
2022/03/14 14:32:46;;;;;;;7.90;3.83;;;20.70;62.00;;;;;;7902561;28;20695;-46
2022/03/14 14:36:33;;;;;;;10.10;3.90;;;20.70;62.20;;;;;;7921757;28;20280;-46
2022/03/14 14:40:19;;;;;;;12.70;3.90;;;20.70;62.20;;;;;;7918894;28;20591;-47
2022/03/14 14:44:05;;;;;;;12.65;4.03;;;20.70;62.50;;;;;;7919621;28;20210;-46
2022/03/14 14:47:50;;;;;;;14.05;4.38;;;20.80;63.00;;;;;;7916515;28;20177;-47
2022/03/14 14:51:37;;;;;;;13.05;4.07;;;20.70;62.10;;;;;;7903724;28;20257;-47
2022/03/14 14:55:23;;;;;;;16.83;3.78;;;20.80;62.40;;;;;;7917473;28;20176;-47
2022/03/14 14:59:09;;;;;;;12.35;4.65;;;20.80;63.10;;;;;;7903412;28;20697;-46
2022/03/14 15:02:54;;;;;;;16.63;5.00;;;20.70;61.40;;;;;;7920265;28;20348;-47
2022/03/14 15:06:40;;;;;;;9.32;4.80;;;20.70;60.90;;;;;;7903280;28;20229;-48
2022/03/14 15:10:25;;;;;;;8.55;5.07;;;20.70;60.60;;;;;;7903236;28;20184;-49
2022/03/14 15:14:12;;;;;;;12.00;5.00;;;20.70;60.20;;;;;;7903565;28;20191;-46
2022/03/14 15:17:58;;;;;;;7.00;4.57;;;20.80;60.10;;;;;;7903293;28;20184;-47
2022/03/14 15:21:44;;;;;;;13.77;4.65;;;20.70;60.20;;;;;;7909339;28;20196;-47
2022/03/14 15:25:30;;;;;;;9.30;4.53;;;20.90;63.40;;;;;;7919191;28;20713;-48
2022/03/14 15:29:15;;;;;;;20.23;4.68;;;20.90;62.20;;;;;;7902913;28;20177;-48
2022/03/14 15:33:03;;;;;;;14.55;4.45;;;21.00;62.20;;;;;;7902468;28;20219;-47
2022/03/14 15:36:49;;;;;;;21.35;5.63;;;21.00;60.90;;;;;;7902864;28;20282;-47
2022/03/14 15:40:34;;;;;;;21.95;5.53;;;21.00;61.60;;;;;;7902504;28;20206;-48
2022/03/14 15:44:20;;;;;;;12.35;5.82;;;21.10;62.40;;;;;;7902299;28;20445;-49
2022/03/14 15:48:06;;;;;;;17.27;5.63;;;21.10;62.50;;;;;;7903199;28;20233;-48
2022/03/14 15:51:52;;;;;;;11.82;4.97;;;21.10;62.40;;;;;;7902040;28;20205;-47
2022/03/14 15:55:38;;;;;;;27.23;5.45;;;21.20;62.10;;;;;;7902055;28;20694;-48
2022/03/14 15:59:23;;;;;;;11.70;4.93;;;21.20;62.20;;;;;;7901715;28;20594;-48
2022/03/14 16:03:09;;;;;;;14.63;5.10;;;21.20;62.30;;;;;;7901905;28;20666;-47
2022/03/14 16:06:54;;;;;;;10.27;5.18;;;21.20;62.70;;;;;;7901809;28;20215;-47
2022/03/14 16:10:40;;;;;;;14.98;5.47;;;21.30;62.80;;;;;;7901311;28;20223;-48
2022/03/14 16:14:25;;;;;;;10.20;4.60;;;21.30;63.10;;;;;;7901580;28;20688;-50
2022/03/14 16:18:12;;;;;;;15.57;5.13;;;21.40;63.10;;;;;;7901412;28;20581;-49
2022/03/14 16:21:57;;;;;;;7.95;4.28;;;21.40;63.20;;;;;;7901732;28;20317;-47
2022/03/14 16:25:46;;;;;;;7.80;4.45;;;21.50;63.40;;;;;;7901480;28;20172;-47
2022/03/14 16:29:32;;;;;;;11.57;3.78;;;21.60;63.40;;;;;;7901371;28;20259;-47
2022/03/14 16:33:18;;;;;;;13.02;4.20;;;21.70;63.40;;;;;;7901058;28;20208;-47
2022/03/14 16:37:03;;;;;;;9.48;4.07;;;21.70;63.40;;;;;;7901605;28;20200;-47
2022/03/14 16:40:49;;;;;;;8.48;3.92;;;21.80;63.40;;;;;;7922875;28;20192;-48
2022/03/14 16:44:35;;;;;;;7.68;3.65;;;21.80;63.40;;;;;;7911030;28;20265;-47
2022/03/14 16:48:21;;;;;;;13.90;3.80;;;21.90;63.30;;;;;;7912834;28;20921;-47
2022/03/14 16:52:07;;;;;;;11.27;4.07;;;22.00;63.30;;;;;;7908528;28;20208;-47
2022/03/14 16:55:53;;;;;;;8.68;3.67;;;22.00;63.30;;;;;;7915100;28;20183;-47
2022/03/14 16:59:38;;;;;;;6.40;3.40;;;22.10;63.20;;;;;;7915256;28;20658;-47
2022/03/14 17:03:24;;;;;;;13.00;3.53;;;22.10;63.30;;;;;;7916335;28;20731;-48
2022/03/14 17:07:10;;;;;;;5.13;3.22;;;22.10;63.50;;;;;;7913758;28;20607;-47
2022/03/14 17:10:55;;;;;;;11.43;3.72;;;22.10;63.50;;;;;;7914146;28;20568;-46
2022/03/14 17:14:41;;;;;;;4.80;3.10;;;22.10;63.50;;;;;;7915369;28;20226;-47
2022/03/14 17:18:27;;;;;;;5.90;2.75;;;22.00;63.50;;;;;;7921193;28;20175;-47
2022/03/14 17:22:14;;;;;;;3.55;2.75;;;22.10;63.00;;;;;;7925915;28;20218;-47
2022/03/14 17:25:59;;;;;;;5.38;3.10;;;22.10;63.70;;;;;;7900301;28;20176;-46
2022/03/14 17:29:45;;;;;;;9.55;2.92;;;22.10;63.80;;;;;;7899946;28;20310;-48
2022/03/14 17:33:31;;;;;;;5.95;3.05;;;22.10;63.70;;;;;;7900001;28;20847;-47
2022/03/14 17:37:16;;;;;;;6.25;2.80;;;22.10;63.70;;;;;;7925843;28;20210;-48
2022/03/14 17:41:02;;;;;;;6.60;3.10;;;22.00;63.70;;;;;;7931302;28;20190;-47
2022/03/14 17:44:49;;;;;;;10.60;3.10;;;22.00;63.70;;;;;;7904789;28;20285;-47
2022/03/14 17:48:35;;;;;;;12.85;3.10;;;22.00;64.00;;;;;;7881829;28;20253;-50
2022/03/14 17:52:22;;;;;;;6.95;3.15;;;22.00;64.00;;;;;;7901151;28;20634;-48
2022/03/14 17:56:08;;;;;;;10.50;3.83;;;21.90;63.80;;;;;;7876768;28;20180;-48
2022/03/14 17:59:55;;;;;;;9.75;4.22;;;21.90;64.00;;;;;;7931041;28;20178;-47
2022/03/14 18:03:40;;;;;;;21.58;5.28;;;21.90;63.50;;;;;;7931540;28;20674;-47
2022/03/14 18:07:27;;;;;;;13.85;4.97;;;21.90;63.00;;;;;;7936495;28;20542;-47
2022/03/14 18:11:13;;;;;;;19.23;4.60;;;21.90;63.80;;;;;;7933858;27;20245;-49
2022/03/14 18:14:58;;;;;;;22.10;5.75;;;21.80;63.90;;;;;;7905622;28;20200;-48
2022/03/14 18:18:44;;;;;;;14.10;5.05;;;21.90;63.90;;;;;;7905725;28;20259;-47
2022/03/14 18:22:31;;;;;;;12.32;5.68;;;21.80;63.90;;;;;;7904889;28;20781;-48
2022/03/14 18:26:17;;;;;;;16.35;5.07;;;21.80;63.60;;;;;;7907538;28;20192;-47
2022/03/14 18:30:03;;;;;;;20.75;5.65;;;21.80;63.90;;;;;;7916123;28;20693;-48
2022/03/14 18:34:03;;;;;;;26.33;6.82;;;21.90;64.10;;;;;;7904379;28;20219;-47
2022/03/14 18:37:49;;;;;;;26.20;5.93;;;21.90;63.20;;;;;;7903758;28;20184;-47
2022/03/14 18:41:48;;;;;;;17.98;5.53;;;21.90;64.60;;;;;;7904395;28;20221;-48
2022/03/14 18:45:35;;;;;;;25.63;5.93;;;21.90;64.50;;;;;;7904654;28;20188;-48
2022/03/14 18:49:21;;;;;;;17.02;5.75;;;21.90;64.50;;;;;;7907182;28;20200;-48
2022/03/14 18:53:07;;;;;;;18.15;5.10;;;22.00;64.50;;;;;;7903903;28;20216;-51
2022/03/14 18:56:52;;;;;;;17.50;5.05;;;22.00;64.50;;;;;;7903983;28;20593;-47
2022/03/14 19:00:38;;;;;;;11.90;4.63;;;22.00;64.40;;;;;;7903578;28;20242;-48
2022/03/14 19:04:25;;;;;;;12.88;4.75;;;22.10;64.30;;;;;;7903963;28;20693;-46
2022/03/14 19:08:11;;;;;;;15.45;4.40;;;22.10;63.60;;;;;;7903811;28;20648;-47
2022/03/14 19:11:56;;;;;;;19.15;4.32;;;22.00;62.40;;;;;;7903232;28;20285;-46
2022/03/14 19:15:45;;;;;;;10.65;3.60;;;22.00;63.80;;;;;;7903582;28;20177;-46
2022/03/14 19:19:32;;;;;;;9.98;4.20;;;22.00;64.10;;;;;;7902671;28;20172;-47
2022/03/14 19:23:18;;;;;;;8.00;3.75;;;22.10;65.20;;;;;;7913017;28;20203;-47
2022/03/14 19:27:07;;;;;;;7.22;3.40;;;22.10;64.40;;;;;;7923311;28;20188;-47
2022/03/14 19:30:54;;;;;;;15.30;4.15;;;22.20;64.50;;;;;;7919556;28;20203;-46
2022/03/14 19:34:40;;;;;;;9.55;3.47;;;22.20;64.50;;;;;;7934508;28;20204;-46